SondeTracker

Meteorological Radiosondes Database

Operations

Sounding was ended - last measurement: 2022-12-06 13:33:05z

MAP
About Radiosonde

Number: U2750201

Launch Site: Eskmeals (GB)

Type: RS41-SG

AUX: NO

Frequency: 405.10 MHz

Max Speed: 80 km/h at 10305 m

Average Speed: 36.36 km/h

Max Altitude: 22826 m

Average Ascent Speed: 3.79 m/s

Average Descent Speed: 5.77 m/s

Status: UNKNOWN

Status Changes
Launch Site Type AUX Frequency Status Finder Landing Point Description Changes made by
APRS Statistics

Received Frames: 450

First Frame [UTC]: 2022-12-06 10:51:46z

Last Frame [UTC]: 2022-12-06 13:33:05z

Receivers: F5RZC-14, G3HRZ, G4VFL-14, M0DMP-12, M0NRD

Flight Time: 02:41:19 h

Distance From First Measurement: 89.74 km

Nearest City: Ormskirk (GB) [1.54 km]

Nearest Hunter: 2E0BBN [18.27 km]

Ground Altitude: 38 m

Distance from QTH: 0.00 km

APRS Data
Receiver Number Date/Time [UTC] φ λ Course [°] Speed [km/h] Altitude [m] Description
G3HRZU27502012022-12-06 13:33:0553.5747-2.8681219619623Clb=-5.1m/s t=1.1C h=83.1% p=-1.0hPa 405.101 MHz Type=RS41-SG ser=U2750201 Radiosonde
G3HRZU27502012022-12-06 13:32:3453.576-2.8666421624778Clb=-6.6m/s t=1.4C h=74.0% p=-1.0hPa 405.101 MHz Type=RS41-SG ser=U2750201 Radiosonde
G3HRZU27502012022-12-06 13:32:0353.5773-2.8652619619964Clb=-6.8m/s t=-0.2C h=77.7% p=-1.0hPa 405.101 MHz Type=RS41-SG ser=U2750201 Radiosonde
G3HRZU27502012022-12-06 13:31:3253.5785-2.86518178151149Clb=-5.7m/s t=-1.6C h=84.6% p=-1.0hPa 405.101 MHz Type=RS41-SG ser=U2750201 Radiosonde
G3HRZU27502012022-12-06 13:31:0153.5796-2.86457205131337Clb=-7.0m/s t=-3.0C h=86.8% p=-1.0hPa 405.101 MHz Type=RS41-SG ser=U2750201 Radiosonde
G3HRZU27502012022-12-06 13:30:3053.5805-2.86381208111542Clb=-6.9m/s t=-4.9C h=96.2% p=-1.0hPa 405.101 MHz Type=RS41-SG ser=U2750201 Radiosonde
G3HRZU27502012022-12-06 13:30:0053.5809-2.863319291751Clb=-5.8m/s t=-6.3C h=90.4% p=-1.0hPa 405.101 MHz Type=RS41-SG ser=U2750201 Radiosonde
G3HRZU27502012022-12-06 13:29:2853.5821-2.86259197241900Clb=-2.6m/s t=-7.1C h=73.5% p=-1.0hPa 405.101 MHz Type=RS41-SG ser=U2750201 Radiosonde
G3HRZU27502012022-12-06 13:28:5753.584-2.86103214261966Clb=-2.0m/s t=-7.1C h=50.0% p=-1.0hPa 405.101 MHz Type=RS41-SG ser=U2750201 Radiosonde
G3HRZU27502012022-12-06 13:28:2553.5859-2.85931198282029Clb=-2.1m/s t=-6.7C h=35.6% p=-1.0hPa 405.101 MHz Type=RS41-SG ser=U2750201 Radiosonde
G3HRZU27502012022-12-06 13:27:5453.588-2.85803209302090Clb=-1.6m/s t=-6.8C h=33.9% p=-1.0hPa 405.101 MHz Type=RS41-SG ser=U2750201 Radiosonde
G3HRZU27502012022-12-06 13:27:2353.5894-2.85693191192152Clb=-2.3m/s t=-7.1C h=32.7% p=-1.0hPa 405.101 MHz Type=RS41-SG ser=U2750201 Radiosonde
G3HRZU27502012022-12-06 13:26:5253.5909-2.85674180172231Clb=-2.7m/s t=-7.4C h=23.8% p=-1.0hPa 405.101 MHz Type=RS41-SG ser=U2750201 Radiosonde
G3HRZU27502012022-12-06 13:26:2153.5922-2.85728153222325Clb=-3.1m/s t=-7.4C h=15.0% p=-1.0hPa 405.101 MHz Type=RS41-SG ser=U2750201 Radiosonde
G3HRZU27502012022-12-06 13:25:5053.5942-2.85882165312421Clb=-3.3m/s t=-7.2C h=12.5% p=-1.0hPa 405.101 MHz Type=RS41-SG ser=U2750201 Radiosonde
G3HRZU27502012022-12-06 13:25:2353.5963-2.85936177202521Clb=-3.3m/s t=-7.7C h=19.4% p=-1.0hPa 405.101 MHz Type=RS41-SG ser=U2750201 Radiosonde
G3HRZU27502012022-12-06 13:24:4953.5979-2.86037157302620Clb=-3.3m/s t=-7.5C h=4.7% p=-1.0hPa 405.101 MHz Type=RS41-SG ser=U2750201 Radiosonde
G3HRZU27502012022-12-06 13:24:1753.6004-2.86135174352721Clb=-3.7m/s t=-7.6C h=1.4% p=-1.0hPa 405.101 MHz Type=RS41-SG ser=U2750201 Radiosonde
G4VFL-14U27502012022-12-06 13:24:0353.6019-2.86142183392774Clb=-3.0m/s t=-7.8C h=1.5% 405.10MHz Type=RS41-SG Details on http://radiosondy.info
G4VFL-14U27502012022-12-06 13:23:5553.6025-2.86136184412793Clb=-3.1m/s t=-7.9C h=1.7% 405.10MHz Type=RS41-SG Details on http://radiosondy.info
G4VFL-14U27502012022-12-06 13:23:5053.603-2.86129186432807Clb=-2.7m/s t=-7.9C h=2.3% 405.10MHz Type=RS41-SG batt=2.6V Details on http://radiosondy.info
G3HRZU27502012022-12-06 13:23:4653.6035-2.86123184412817Clb=-2.6m/s t=-7.9C h=4.5% p=-1.0hPa 405.101 MHz Type=RS41-SG ser=U2750201 Radiosonde
G4VFL-14U27502012022-12-06 13:23:4453.6037-2.8612185432822Clb=-2.4m/s t=-7.7C h=6.6% 405.10MHz Type=RS41-SG Details on http://radiosondy.info
G4VFL-14U27502012022-12-06 13:23:3853.6043-2.86112185412836Clb=-2.1m/s t=-7.8C h=8.0% 405.10MHz Type=RS41-SG Details on http://radiosondy.info
G3HRZU27502012022-12-06 13:23:3253.6886-2.87582179395188Clb=-3.1m/s t=-23.8C h=4.4% p=-1.0hPa 405.101 MHz Type=RS41-SG ser=U2750201 Radiosonde
G4VFL-14U27502012022-12-06 13:23:1653.6898-2.8764155395225Clb=-3.2m/s t=-23.9C h=4.5% 405.10MHz Type=RS41-SG Details on http://radiosondy.info
G4VFL-14U27502012022-12-06 13:22:5653.6912-2.87681164395273Clb=-3.1m/s t=-24.2C h=4.5% 405.10MHz Type=RS41-SG batt=2.6V Details on http://radiosondy.info
G3HRZU27502012022-12-06 13:22:5253.6917-2.87708154395285Clb=-3.1m/s t=-24.3C h=4.1% p=-1.0hPa 405.101 MHz Type=RS41-SG ser=U2750201 Radiosonde
G4VFL-14U27502012022-12-06 13:22:3853.6927-2.87743174485320Clb=-3.5m/s t=-24.4C h=4.1% 405.10MHz Type=RS41-SG TxOff=7h42m Details on http://radiosondy.info
G4VFL-14U27502012022-12-06 13:22:1553.6944-2.87822155445369Clb=-3.0m/s t=-24.7C h=4.5% 405.10MHz Type=RS41-SG Details on http://radiosondy.info
G3HRZU27502012022-12-06 13:22:1053.6949-2.87855164355383Clb=-3.1m/s t=-24.8C h=4.0% p=-1.0hPa 405.101 MHz Type=RS41-SG ser=U2750201 Radiosonde
G4VFL-14U27502012022-12-06 13:21:5653.6961-2.87904161465419Clb=-3.3m/s t=-24.9C h=3.8% 405.10MHz Type=RS41-SG batt=2.5V Details on http://radiosondy.info
G4VFL-14U27502012022-12-06 13:21:3853.6978-2.88008168485471Clb=-3.5m/s t=-25.2C h=4.0% 405.10MHz Type=RS41-SG Details on http://radiosondy.info
G3HRZU27502012022-12-06 13:21:3453.6983-2.88033159525485Clb=-3.6m/s t=-25.3C h=3.7% p=-1.0hPa 405.101 MHz Type=RS41-SG ser=U2750201 Radiosonde
G4VFL-14U27502012022-12-06 13:21:2053.6994-2.88134154435520Clb=-3.2m/s t=-25.5C h=4.5% 405.10MHz Type=RS41-SG Details on http://radiosondy.info
G3HRZU27502012022-12-06 13:20:5553.7015-2.88278154355586Clb=-3.3m/s t=-26.0C h=5.9% p=-1.0hPa 405.101 MHz Type=RS41-SG ser=U2750201 Radiosonde
G3HRZU27502012022-12-06 13:20:1353.7045-2.88485153485693Clb=-3.6m/s t=-27.0C h=7.6% p=-1.0hPa 405.101 MHz Type=RS41-SG ser=U2750201 Radiosonde
G4VFL-14U27502012022-12-06 13:19:3853.7066-2.88673154465774Clb=-3.7m/s t=-27.7C h=15.8% 405.10MHz Type=RS41-SG batt=2.5V Details on http://radiosondy.info
G3HRZU27502012022-12-06 13:19:2553.7074-2.88757146465802Clb=-3.9m/s t=-28.0C h=28.4% p=-1.0hPa 405.101 MHz Type=RS41-SG ser=U2750201 Radiosonde
G4VFL-14U27502012022-12-06 13:19:1753.708-2.88835147445828Clb=-3.4m/s t=-28.1C h=34.5% 405.10MHz Type=RS41-SG Details on http://radiosondy.info
G4VFL-14U27502012022-12-06 13:18:5753.7095-2.88973142415884Clb=-3.7m/s t=-28.3C h=55.4% 405.10MHz Type=RS41-SG Details on http://radiosondy.info
G3HRZU27502012022-12-06 13:18:4553.7102-2.89068152355916Clb=-3.9m/s t=-28.6C h=68.1% p=-1.0hPa 405.101 MHz Type=RS41-SG ser=U2750201 Radiosonde
G4VFL-14U27502012022-12-06 13:18:3853.7109-2.89117154445942Clb=-3.5m/s t=-28.6C h=77.0% 405.10MHz Type=RS41-SG TxOff=7h45m batt=2.6V Details on http://radiosondy.info
G4VFL-14U27502012022-12-06 13:18:1853.7123-2.89276154505998Clb=-4.0m/s t=-29.1C h=73.6% 405.10MHz Type=RS41-SG Details on http://radiosondy.info
G3HRZU27502012022-12-06 13:18:0653.7133-2.89364151546032Clb=-4.5m/s t=-29.2C h=63.0% p=-1.0hPa 405.101 MHz Type=RS41-SG ser=U2750201 Radiosonde
G4VFL-14U27502012022-12-06 13:17:5953.714-2.8944143506057Clb=-3.9m/s t=-29.3C h=63.2% 405.10MHz Type=RS41-SG Details on http://radiosondy.info
G4VFL-14U27502012022-12-06 13:17:3653.7155-2.89623151546115Clb=-3.8m/s t=-29.6C h=59.1% 405.10MHz Type=RS41-SG batt=2.6V Details on http://radiosondy.info
G3HRZU27502012022-12-06 13:17:2153.7166-2.89771133526153Clb=-3.7m/s t=-29.8C h=56.7% p=-1.0hPa 405.101 MHz Type=RS41-SG ser=U2750201 Radiosonde
G4VFL-14U27502012022-12-06 13:17:1253.7171-2.89857140486175Clb=-3.5m/s t=-30.0C h=61.3% 405.10MHz Type=RS41-SG Details on http://radiosondy.info
G3HRZU27502012022-12-06 13:16:3953.7194-2.90238125466270Clb=-3.8m/s t=-30.7C h=63.5% p=-1.0hPa 405.101 MHz Type=RS41-SG ser=U2750201 Radiosonde
G3HRZU27502012022-12-06 13:16:0153.722-2.90672145466385Clb=-4.0m/s t=-31.2C h=70.3% p=-1.0hPa 405.101 MHz Type=RS41-SG ser=U2750201 Radiosonde
G4VFL-14U27502012022-12-06 13:15:2053.7247-2.91107132506494Clb=-3.7m/s t=-32.0C h=69.1% 405.10MHz Type=RS41-SG Details on http://radiosondy.info
G3HRZU27502012022-12-06 13:15:1753.7249-2.91145127566502Clb=-3.9m/s t=-32.1C h=67.0% p=-1.0hPa 405.101 MHz Type=RS41-SG ser=U2750201 Radiosonde
G4VFL-14U27502012022-12-06 13:14:5853.7261-2.91345143546555Clb=-3.7m/s t=-32.5C h=71.6% 405.10MHz Type=RS41-SG batt=2.6V Details on http://radiosondy.info
G4VFL-14U27502012022-12-06 13:14:3753.7275-2.91607141566616Clb=-3.7m/s t=-33.0C h=70.9% 405.10MHz Type=RS41-SG Details on http://radiosondy.info
G3HRZU27502012022-12-06 13:14:3553.7277-2.91631143466623Clb=-3.9m/s t=-33.2C h=68.7% p=-1.0hPa 405.101 MHz Type=RS41-SG ser=U2750201 Radiosonde
G4VFL-14U27502012022-12-06 13:14:1553.7292-2.91874125526679Clb=-3.4m/s t=-33.6C h=70.3% 405.10MHz Type=RS41-SG TxOff=7h48m Details on http://radiosondy.info
G4VFL-14U27502012022-12-06 13:13:5453.7306-2.92121129576739Clb=-3.7m/s t=-34.1C h=67.0% 405.10MHz Type=RS41-SG batt=2.6V Details on http://radiosondy.info
G4VFL-14U27502012022-12-06 13:13:3053.7318-2.92437121526798Clb=-3.5m/s t=-34.5C h=70.6% 405.10MHz Type=RS41-SG Details on http://radiosondy.info
G4VFL-14U27502012022-12-06 13:13:0953.7331-2.9268126576854Clb=-3.7m/s t=-34.9C h=73.5% 405.10MHz Type=RS41-SG Details on http://radiosondy.info
G3HRZU27502012022-12-06 13:12:2453.7353-2.93265119566970Clb=-3.5m/s t=-36.0C h=66.1% p=-1.0hPa 405.101 MHz Type=RS41-SG ser=U2750201 Radiosonde
G3HRZU27502012022-12-06 13:12:0153.7373-2.93792113507082Clb=-3.6m/s t=-273.0C h=-1.0% p=-1.0hPa 405.101 MHz Type=RS41-SG ser=U2750201 Radiosonde
G4VFL-14U27502012022-12-06 13:11:5953.7377-2.93932116487111Clb=-3.6m/s t=-37.1C h=72.6% 405.10MHz Type=RS41-SG batt=2.5V Details on http://radiosondy.info
G4VFL-14U27502012022-12-06 13:11:5553.7388-2.94198118467170Clb=-3.9m/s t=-37.6C h=68.9% 405.10MHz Type=RS41-SG Details on http://radiosondy.info
G3HRZU27502012022-12-06 13:11:5453.7391-2.94336109447196Clb=-3.8m/s t=-273.0C h=-1.0% p=-1.0hPa 405.101 MHz Type=RS41 ser=U2750201 Radiosonde
G4VFL-14U27502012022-12-06 13:11:5253.7395-2.94454131527226Clb=-3.9m/s t=-38.1C h=72.8% 405.10MHz Type=RS41-SG Details on http://radiosondy.info
G4VFL-14U27502012022-12-06 13:11:4853.7405-2.94763112527286Clb=-3.6m/s t=-38.6C h=71.9% 405.10MHz Type=RS41-SG batt=2.5V Details on http://radiosondy.info
G3HRZU27502012022-12-06 13:11:4753.7411-2.95055105447336Clb=-3.8m/s t=-273.0C h=-1.0% p=-1.0hPa 405.101 MHz Type=RS41 ser=U2750201 Radiosonde
G4VFL-14U27502012022-12-06 13:11:4553.7412-2.9509108467344Clb=-3.3m/s t=-39.0C h=65.8% 405.10MHz Type=RS41-SG TxOff=7h51m Details on http://radiosondy.info
G4VFL-14U27502012022-12-06 13:11:3953.7421-2.95371110487404Clb=-3.8m/s t=-39.5C h=65.8% 405.10MHz Type=RS41-SG Details on http://radiosondy.info
G4VFL-14U27502012022-12-06 13:11:3853.7433-2.95988100437526Clb=-3.8m/s t=-40.6C h=68.2% 405.10MHz Type=RS41-SG Details on http://radiosondy.info
G3HRZU27502012022-12-06 13:11:3753.7444-2.96454104547625Clb=-3.8m/s t=-41.4C h=63.2% p=-1.0hPa 405.101 MHz Type=RS41-SG ser=U2750201 Radiosonde
G3HRZU27502012022-12-06 13:11:2953.7446-2.9665398397665Clb=-4.0m/s t=-41.6C h=64.2% p=-1.0hPa 405.101 MHz Type=RS41-SG ser=U2750201 Radiosonde
G3HRZU27502012022-12-06 13:10:5953.7456-2.9718117337793Clb=-4.3m/s t=-42.0C h=57.3% p=-1.0hPa 405.101 MHz Type=RS41-SG ser=U2750201 Radiosonde
G4VFL-14U27502012022-12-06 13:10:5753.7456-2.97193121437797Clb=-4.1m/s t=-41.9C h=60.9% 405.10MHz Type=RS41-SG Details on http://radiosondy.info
G4VFL-14U27502012022-12-06 13:10:3553.7466-2.97422123507860Clb=-4.1m/s t=-42.2C h=70.8% 405.10MHz Type=RS41-SG batt=2.6V Details on http://radiosondy.info
G3HRZU27502012022-12-06 13:10:1253.7474-2.97699128437918Clb=-4.2m/s t=-42.7C h=66.8% p=-1.0hPa 405.101 MHz Type=RS41-SG ser=U2750201 Radiosonde
G4VFL-14U27502012022-12-06 13:10:1153.7474-2.97699129527918Clb=-4.2m/s t=-42.6C h=70.3% 405.10MHz Type=RS41-SG Details on http://radiosondy.info
G4VFL-14U27502012022-12-06 13:09:4153.7489-2.97972133617985Clb=-3.8m/s t=-43.0C h=74.4% 405.10MHz Type=RS41-SG Details on http://radiosondy.info
G3HRZU27502012022-12-06 13:09:1753.7502-2.98263117598039Clb=-4.1m/s t=-43.5C h=69.4% p=-1.0hPa 405.101 MHz Type=RS41-SG ser=U2750201 Radiosonde
G4VFL-14U27502012022-12-06 13:09:1453.7503-2.98307116548047Clb=-3.9m/s t=-43.5C h=74.9% 405.10MHz Type=RS41-SG TxOff=7h54m batt=2.5V Details on http://radiosondy.info
G4VFL-14U27502012022-12-06 13:08:4453.7517-2.98625124638115Clb=-4.3m/s t=-43.8C h=70.4% 405.10MHz Type=RS41-SG Details on http://radiosondy.info
G3HRZU27502012022-12-06 13:08:2453.7526-2.98904115548162Clb=-3.8m/s t=-44.1C h=63.4% p=-1.0hPa 405.101 MHz Type=RS41-SG ser=U2750201 Radiosonde
G4VFL-14U27502012022-12-06 13:08:1853.7528-2.98964118568174Clb=-4.0m/s t=-44.1C h=67.5% 405.10MHz Type=RS41-SG Details on http://radiosondy.info
G4VFL-14U27502012022-12-06 13:07:4753.7542-2.99259132658235Clb=-3.7m/s t=-44.4C h=66.8% 405.10MHz Type=RS41-SG batt=2.5V Details on http://radiosondy.info
G3HRZU27502012022-12-06 13:05:4853.7603-3.00876114638531Clb=-4.0m/s t=-47.0C h=67.1% p=-1.0hPa 405.101 MHz Type=RS41-SG ser=U2750201 Radiosonde
G4VFL-14U27502012022-12-06 13:05:3453.7606-3.01008118508555Clb=-4.1m/s t=-47.3C h=73.9% 405.10MHz Type=RS41-SG Details on http://radiosondy.info
G4VFL-14U27502012022-12-06 13:05:1253.7616-3.01304113528615Clb=-3.2m/s t=-47.6C h=71.7% 405.10MHz Type=RS41-SG Details on http://radiosondy.info
G3HRZU27502012022-12-06 13:05:0053.762-3.01467111528641Clb=-3.1m/s t=-47.9C h=64.2% p=-1.0hPa 405.101 MHz Type=RS41-SG ser=U2750201 Radiosonde
G4VFL-14U27502012022-12-06 13:04:4553.7623-3.0163114598669Clb=-3.5m/s t=-48.1C h=67.1% 405.10MHz Type=RS41-SG batt=2.6V Details on http://radiosondy.info
G4VFL-14U27502012022-12-06 13:04:1653.7635-3.01974130508722Clb=-3.1m/s t=-48.7C h=61.7% 405.10MHz Type=RS41-SG Details on http://radiosondy.info
G3HRZU27502012022-12-06 13:04:0753.764-3.02058131508742Clb=-4.5m/s t=-48.8C h=52.8% p=-1.0hPa 405.101 MHz Type=RS41-SG ser=U2750201 Radiosonde
G4VFL-14U27502012022-12-06 13:03:4653.7647-3.02231121568780Clb=-3.3m/s t=-49.0C h=44.4% 405.10MHz Type=RS41-SG TxOff=7h58m Details on http://radiosondy.info
G4VFL-14U27502012022-12-06 13:03:1953.7657-3.02566122528831Clb=-3.5m/s t=-49.3C h=28.3% 405.10MHz Type=RS41-SG batt=2.5V Details on http://radiosondy.info
G3HRZU27502012022-12-06 13:03:1353.7661-3.02643127528846Clb=-4.1m/s t=-49.3C h=21.2% p=-1.0hPa 405.101 MHz Type=RS41-SG ser=U2750201 Radiosonde
G4VFL-14U27502012022-12-06 13:02:5953.7669-3.02827127488915Clb=-3.7m/s t=-49.8C h=23.3% 405.10MHz Type=RS41-SG Details on http://radiosondy.info
G3HRZU27502012022-12-06 13:02:2953.7684-3.0314128448983Clb=-2.9m/s t=-50.2C h=18.0% p=-1.0hPa 405.101 MHz Type=RS41-SG ser=U2750201 Radiosonde
G3HRZU27502012022-12-06 13:01:4153.7706-3.03626122419091Clb=-3.8m/s t=-50.3C h=-1.0% p=-1.0hPa 405.101 MHz Type=RS41-SG ser=U2750201 Radiosonde
G4VFL-14U27502012022-12-06 13:00:5253.7722-3.04056122469205Clb=-4.3m/s t=-50.8C h=19.3% 405.10MHz Type=RS41-SG Details on http://radiosondy.info
G3HRZU27502012022-12-06 13:00:4453.7726-3.04158124469229Clb=-5.0m/s t=-273.0C h=-1.0% p=-1.0hPa 405.101 MHz Type=RS41-SG ser=U2750201 Radiosonde
G4VFL-14U27502012022-12-06 13:00:2353.7732-3.04311128489274Clb=-5.5m/s t=-51.4C h=20.2% 405.10MHz Type=RS41-SG TxOff=8h00m batt=2.6V Details on http://radiosondy.info
G4VFL-14U27502012022-12-06 12:59:4953.7741-3.04573110449337Clb=-3.7m/s t=-52.0C h=20.1% 405.10MHz Type=RS41-SG Details on http://radiosondy.info
G4VFL-14U27502012022-12-06 12:58:1953.7758-3.05343112439517Clb=-3.2m/s t=-52.0C h=18.4% 405.10MHz Type=RS41-SG Details on http://radiosondy.info
G4VFL-14U27502012022-12-06 12:57:4553.7763-3.05588108449583Clb=-4.4m/s t=-52.2C h=19.1% 405.10MHz Type=RS41-SG batt=2.5V Details on http://radiosondy.info
G4VFL-14U27502012022-12-06 12:57:1753.7768-3.05849110509649Clb=-5.7m/s t=-52.6C h=18.2% 405.10MHz Type=RS41-SG Details on http://radiosondy.info
G3HRZU27502012022-12-06 12:56:3753.7778-3.06255120399767Clb=-4.5m/s t=-53.5C h=13.8% p=-1.0hPa 405.101 MHz Type=RS41-SG ser=U2750201 Radiosonde
G3HRZU27502012022-12-06 12:55:4253.7798-3.06703137469906Clb=-4.5m/s t=-53.2C h=10.3% p=-1.0hPa 405.101 MHz Type=RS41-SG ser=U2750201 Radiosonde
G3HRZU27502012022-12-06 12:54:4353.7833-3.071211526510050Clb=-3.9m/s t=-273.0C h=-1.0% p=-1.0hPa 405.101 MHz Type=RS41-SG ser=U2750201 Radiosonde
G4VFL-14U27502012022-12-06 12:54:3553.784-3.071691576310071Clb=-4.4m/s t=-52.9C h=12.1% 405.10MHz Type=RS41-SG Details on http://radiosondy.info
G4VFL-14U27502012022-12-06 12:53:5953.7872-3.073951585710178Clb=-4.7m/s t=-53.5C h=12.7% 405.10MHz Type=RS41-SG batt=2.6V Details on http://radiosondy.info
G3HRZU27502012022-12-06 12:53:5153.7878-3.074461535710203Clb=-5.3m/s t=-273.0C h=-1.0% p=-1.0hPa 405.101 MHz Type=RS41 ser=U2750201 Radiosonde
G4VFL-14U27502012022-12-06 12:52:2353.7935-3.078081605610437Clb=-5.2m/s t=-55.1C h=13.9% 405.10MHz Type=RS41-SG Details on http://radiosondy.info
G4VFL-14U27502012022-12-06 12:51:4753.7956-3.079021664410524Clb=-5.9m/s t=-55.3C h=13.7% 405.10MHz Type=RS41-SG Details on http://radiosondy.info
G4VFL-14U27502012022-12-06 12:49:2353.8015-3.080531662010918Clb=-4.6m/s t=-56.8C h=14.5% 405.10MHz Type=RS41-SG TxOff=8h05m batt=2.6V Details on http://radiosondy.info
G4VFL-14U27502012022-12-06 12:48:2853.8027-3.082451313011059Clb=-4.7m/s t=-57.1C h=13.3% 405.10MHz Type=RS41-SG Details on http://radiosondy.info
G4VFL-14U27502012022-12-06 12:47:5253.8032-3.084251223711146Clb=-5.5m/s t=-57.7C h=12.5% 405.10MHz Type=RS41-SG Details on http://radiosondy.info
G4VFL-14U27502012022-12-06 12:47:2153.8042-3.086211354611224Clb=-5.9m/s t=-57.6C h=11.0% 405.10MHz Type=RS41-SG batt=2.5V Details on http://radiosondy.info
G4VFL-14U27502012022-12-06 12:46:5153.8054-3.08851314311304Clb=-4.8m/s t=-55.4C h=8.6% 405.10MHz Type=RS41-SG Details on http://radiosondy.info
G3HRZU27502012022-12-06 12:45:3953.8116-3.093871783911668Clb=-6.6m/s t=-56.2C h=4.3% p=-1.0hPa 405.101 MHz Type=RS41-SG ser=U2750201 Radiosonde
G3HRZU27502012022-12-06 12:44:3353.812-3.093891763711691Clb=-5.2m/s t=-56.3C h=4.4% p=-1.0hPa 405.101 MHz Type=RS41-SG ser=U2750201 Radiosonde
G3HRZU27502012022-12-06 12:43:5953.8155-3.09591694611896Clb=-5.5m/s t=-56.5C h=3.4% p=-1.0hPa 405.101 MHz Type=RS41-SG ser=U2750201 Radiosonde
G4VFL-14U27502012022-12-06 12:43:5453.8157-3.095931724111902Clb=-5.6m/s t=-56.3C h=6.2% 405.10MHz Type=RS41-SG Details on http://radiosondy.info
G3HRZU27502012022-12-06 12:43:5053.8181-3.096041923712033Clb=-5.0m/s t=-54.9C h=2.7% p=-1.0hPa 405.101 MHz Type=RS41-SG ser=U2750201 Radiosonde
G4VFL-14U27502012022-12-06 12:43:4953.8193-3.09581923112129Clb=-5.2m/s t=-54.8C h=5.0% 405.10MHz Type=RS41-SG batt=2.6V Details on http://radiosondy.info
G3HRZU27502012022-12-06 12:43:4853.8207-3.095751783312210Clb=-5.6m/s t=-54.9C h=2.4% p=-1.0hPa 405.101 MHz Type=RS41-SG ser=U2750201 Radiosonde
G4VFL-14U27502012022-12-06 12:43:4353.8224-3.095611814312294Clb=-5.5m/s t=-55.1C h=5.0% 405.10MHz Type=RS41-SG Details on http://radiosondy.info
G3HRZU27502012022-12-06 12:43:3453.824-3.09551763712375Clb=-5.2m/s t=-54.9C h=2.3% p=-1.0hPa 405.101 MHz Type=RS41-SG ser=U2750201 Radiosonde
G4VFL-14U27502012022-12-06 12:43:2653.8253-3.095671732812476Clb=-5.8m/s t=-54.4C h=4.6% 405.10MHz Type=RS41-SG Details on http://radiosondy.info
M0DMP-12U27502012022-12-06 12:43:2353.8263-3.095731752812558Clb=-6.8m/s t=-273.0C h=-1.0% p=-1.0hPa 405.101 MHz Type=RS41 Radiosonde auto_rx v1.5.9
G3HRZU27502012022-12-06 12:43:1953.8263-3.095731752812558Clb=-6.8m/s t=-54.8C h=2.1% p=-1.0hPa 405.101 MHz Type=RS41-SG ser=U2750201 Radiosonde
G3HRZU27502012022-12-06 12:42:3853.8284-3.096231613012742Clb=-5.8m/s t=-56.2C h=2.0% p=-1.0hPa 405.101 MHz Type=RS41-SG ser=U2750201 Radiosonde
G4VFL-14U27502012022-12-06 12:42:0053.8301-3.097311533712899Clb=-6.1m/s t=-57.3C h=5.1% 405.10MHz Type=RS41-SG Details on http://radiosondy.info
G4VFL-14U27502012022-12-06 12:41:5953.8314-3.098511554312996Clb=-5.6m/s t=-57.5C h=5.2% 405.10MHz Type=RS41-SG batt=2.5V Details on http://radiosondy.info
G4VFL-14U27502012022-12-06 12:41:5653.8331-3.09951644113088Clb=-5.4m/s t=-56.8C h=4.8% 405.10MHz Type=RS41-SG Details on http://radiosondy.info
G4VFL-14U27502012022-12-06 12:41:5453.8346-3.100221733913181Clb=-5.0m/s t=-56.8C h=4.8% 405.10MHz Type=RS41-SG Details on http://radiosondy.info
G4VFL-14U27502012022-12-06 12:41:5253.836-3.100851623913273Clb=-6.4m/s t=-55.8C h=4.6% 405.10MHz Type=RS41-SG batt=2.5V Details on http://radiosondy.info
G4VFL-14U27502012022-12-06 12:41:5153.8374-3.101671553513376Clb=-6.4m/s t=-55.4C h=4.3% 405.10MHz Type=RS41-SG Details on http://radiosondy.info
G4VFL-14U27502012022-12-06 12:41:5053.8386-3.102861383013475Clb=-6.4m/s t=-55.2C h=4.2% 405.10MHz Type=RS41-SG Details on http://radiosondy.info
G3HRZU27502012022-12-06 12:41:4953.8387-3.103121342813493Clb=-6.0m/s t=-55.0C h=1.5% p=-1.0hPa 405.101 MHz Type=RS41-SG ser=U2750201 Radiosonde
G3HRZU27502012022-12-06 12:41:4853.8401-3.106311293113696Clb=-5.6m/s t=-55.6C h=1.5% p=-1.0hPa 405.101 MHz Type=RS41-SG ser=U2750201 Radiosonde
G3HRZU27502012022-12-06 12:41:4453.8415-3.10921282013902Clb=-7.4m/s t=-56.6C h=1.7% p=-1.0hPa 405.101 MHz Type=RS41-SG ser=U2750201 Radiosonde
G4VFL-14U27502012022-12-06 12:41:2053.8424-3.110891232214104Clb=-6.6m/s t=-55.2C h=4.0% 405.10MHz Type=RS41-SG Details on http://radiosondy.info
G3HRZU27502012022-12-06 12:41:1653.8424-3.111161142214126Clb=-7.0m/s t=-55.4C h=1.5% p=-1.0hPa 405.101 MHz Type=RS41-SG ser=U2750201 Radiosonde
G4VFL-14U27502012022-12-06 12:41:0453.8427-3.112161272014220Clb=-8.1m/s t=-56.2C h=4.3% 405.10MHz Type=RS41-SG Details on http://radiosondy.info
G4VFL-14U27502012022-12-06 12:40:3753.8428-3.113381112014333Clb=-7.5m/s t=-56.4C h=4.4% 405.10MHz Type=RS41-SG batt=2.6V Details on http://radiosondy.info
G3HRZU27502012022-12-06 12:40:3253.8428-3.113581051514353Clb=-7.2m/s t=-56.6C h=1.6% p=-1.0hPa 405.101 MHz Type=RS41-SG ser=U2750201 Radiosonde
G4VFL-14U27502012022-12-06 12:40:0653.8429-3.114731142214447Clb=-6.7m/s t=-56.2C h=4.3% 405.10MHz Type=RS41-SG Details on http://radiosondy.info
G4VFL-14U27502012022-12-06 12:39:3653.8435-3.115761302614553Clb=-7.2m/s t=-56.1C h=4.3% 405.10MHz Type=RS41-SG Details on http://radiosondy.info
G3HRZU27502012022-12-06 12:39:2953.8436-3.115971312014575Clb=-6.9m/s t=-56.1C h=1.5% p=-1.0hPa 405.101 MHz Type=RS41-SG ser=U2750201 Radiosonde
G4VFL-14U27502012022-12-06 12:38:5853.8443-3.116881482414674Clb=-8.1m/s t=-56.3C h=4.4% 405.10MHz Type=RS41-SG batt=2.5V Details on http://radiosondy.info
G3HRZU27502012022-12-06 12:38:2053.8454-3.117751563014803Clb=-7.2m/s t=-56.4C h=1.6% p=-1.0hPa 405.101 MHz Type=RS41-SG ser=U2750201 Radiosonde
G3HRZU27502012022-12-06 12:37:0753.8477-3.118321712815026Clb=-7.0m/s t=-54.7C h=1.4% p=-1.0hPa 405.101 MHz Type=RS41-SG ser=U2750201 Radiosonde
G3HRZU27502012022-12-06 12:35:5853.8493-3.119581502415255Clb=-6.9m/s t=-55.5C h=1.5% p=-1.0hPa 405.101 MHz Type=RS41-SG ser=U2750201 Radiosonde
G3HRZU27502012022-12-06 12:34:3653.8509-3.122141382415494Clb=-7.3m/s t=-56.0C h=1.5% p=-1.0hPa 405.101 MHz Type=RS41-SG ser=U2750201 Radiosonde
G4VFL-14U27502012022-12-06 12:34:1253.8511-3.122951142215564Clb=-7.1m/s t=-56.3C h=4.4% 405.10MHz Type=RS41-SG Details on http://radiosondy.info
G4VFL-14U27502012022-12-06 12:33:3653.8515-3.12421283015675Clb=-6.8m/s t=-56.8C h=4.7% 405.10MHz Type=RS41-SG Details on http://radiosondy.info
G3HRZU27502012022-12-06 12:33:1953.8518-3.124791352815726Clb=-7.1m/s t=-56.7C h=1.5% p=-1.0hPa 405.101 MHz Type=RS41-SG ser=U2750201 Radiosonde
F5RZC-14U27502012022-12-06 12:32:5953.8521-3.125281433515781Clb=-7.7m/s t=-56.7C h=4.5% 405.10MHz Type=RS41-SG Details on http://radiosondy.info
G3HRZU27502012022-12-06 12:32:3153.8998-3.131811692621750Clb=-12.3m/s t=-63.4C h=1.7% p=-1.0hPa 405.101 MHz Type=RS41-SG ser=U2750201 Radiosonde
G3HRZU27502012022-12-06 12:31:1653.9009-3.13334862222133Clb=-12.0m/s t=-63.1C h=1.6% p=-1.0hPa 405.101 MHz Type=RS41-SG ser=U2750201 Radiosonde
G3HRZU27502012022-12-06 12:30:0353.9012-3.137031153322541Clb=-12.4m/s t=-64.5C h=1.7% p=-1.0hPa 405.101 MHz Type=RS41-SG ser=U2750201 Radiosonde
G4VFL-14U27502012022-12-06 12:30:0053.9012-3.137031163922541Clb=-12.3m/s t=-64.4C h=6.1% 405.10MHz Type=RS41-SG Details on http://radiosondy.info
G4VFL-14U27502012022-12-06 12:28:5453.903-3.140881324322826Clb=5.5m/s t=-64.7C h=6.1% 405.10MHz Type=RS41-SG batt=2.6V Details on http://radiosondy.info
G3HRZU27502012022-12-06 12:28:5053.9031-3.141141314122816Clb=4.9m/s t=-64.7C h=1.8% p=-1.0hPa 405.101 MHz Type=RS41-SG ser=U2750201 Radiosonde
G4VFL-14U27502012022-12-06 12:28:1353.9041-3.143511214422741Clb=4.3m/s t=-64.9C h=6.2% 405.10MHz Type=RS41-SG Details on http://radiosondy.info
G3HRZU27502012022-12-06 12:27:4053.9053-3.145681344122662Clb=4.4m/s t=-64.7C h=1.7% p=-1.0hPa 405.101 MHz Type=RS41-SG ser=U2750201 Radiosonde
G4VFL-14U27502012022-12-06 12:27:3853.9053-3.145681354122662Clb=4.3m/s t=-64.7C h=6.2% 405.10MHz Type=RS41-SG Details on http://radiosondy.info
G4VFL-14U27502012022-12-06 12:27:0653.906-3.147821233522592Clb=3.9m/s t=-64.4C h=6.1% 405.10MHz Type=RS41-SG batt=2.6V Details on http://radiosondy.info
G3HRZU27502012022-12-06 12:26:3753.9067-3.149851143322516Clb=4.3m/s t=-64.3C h=1.7% p=-1.0hPa 405.101 MHz Type=RS41-SG ser=U2750201 Radiosonde
G4VFL-14U27502012022-12-06 12:26:3253.9067-3.149981152622511Clb=5.5m/s t=-64.3C h=6.0% 405.10MHz Type=RS41-SG Details on http://radiosondy.info
M0NRDU27502012022-12-06 12:25:4853.9073-3.15375902622380Clb=4.0m/s t=-273.0C h=-1.0% p=-1.0hPa 405.101 MHz Type=RS41 Radiosonde
G3HRZU27502012022-12-06 12:25:2653.9073-3.15386892822375Clb=5.3m/s t=-63.9C h=1.7% p=-1.0hPa 405.101 MHz Type=RS41-SG ser=U2750201 Radiosonde
M0NRDU27502012022-12-06 12:24:3353.9073-3.15694931922242Clb=4.8m/s t=-273.0C h=-1.0% p=-1.0hPa 405.101 MHz Type=RS41 Radiosonde
G3HRZU27502012022-12-06 12:24:1053.9073-3.15723882422227Clb=4.6m/s t=-63.6C h=1.7% p=-1.0hPa 405.101 MHz Type=RS41-SG ser=U2750201 Radiosonde
M0NRDU27502012022-12-06 12:23:2253.9075-3.158841062222130Clb=4.1m/s t=-273.0C h=-1.0% p=-1.0hPa 405.101 MHz Type=RS41 Radiosonde
G4VFL-14U27502012022-12-06 12:23:1953.9075-3.158921111922126Clb=5.2m/s t=-63.0C h=5.7% 405.10MHz Type=RS41-SG Details on http://radiosondy.info
G3HRZU27502012022-12-06 12:22:5853.9078-3.159541281722077Clb=5.2m/s t=-63.1C h=1.6% p=-1.0hPa 405.101 MHz Type=RS41-SG ser=U2750201 Radiosonde
G4VFL-14U27502012022-12-06 12:22:3853.9079-3.159911172022049Clb=5.4m/s t=-63.1C h=5.6% 405.10MHz Type=RS41-SG TxPastBurst=8h30m batt=2.6V Details on http://radiosondy.info
G4VFL-14U27502012022-12-06 12:21:5253.9087-3.160581692421958Clb=4.4m/s t=-63.4C h=5.8% 405.10MHz Type=RS41-SG Details on http://radiosondy.info
G3HRZU27502012022-12-06 12:21:4253.909-3.160711682821933Clb=4.7m/s t=-63.6C h=1.7% p=-1.0hPa 405.101 MHz Type=RS41-SG ser=U2750201 Radiosonde
F5RZC-14U27502012022-12-06 12:21:2453.9093-3.160981462821905Clb=4.9m/s t=-63.8C h=5.9% 405.10MHz Type=RS41-SG Details on http://radiosondy.info
G4VFL-14U27502012022-12-06 12:21:1253.9096-3.161051773921880Clb=4.3m/s t=-63.9C h=6.1% 405.10MHz Type=RS41-SG Details on http://radiosondy.info
F5RZC-14U27502012022-12-06 12:20:4453.9103-3.161181942821833Clb=4.1m/s t=-63.8C h=5.9% 405.10MHz Type=RS41-SG TxPastBurst=8h30m batt=2.6V Details on http://radiosondy.info
G3HRZU27502012022-12-06 12:20:1753.911-3.160941812621784Clb=4.6m/s t=-64.5C h=1.8% p=-1.0hPa 405.101 MHz Type=RS41-SG ser=U2750201 Radiosonde
F5RZC-14U27502012022-12-06 12:19:5153.9113-3.160841962221760Clb=5.2m/s t=-64.4C h=6.2% 405.10MHz Type=RS41-SG Details on http://radiosondy.info
F5RZC-14U27502012022-12-06 12:18:5753.9121-3.16051954321687Clb=4.8m/s t=-63.8C h=6.0% 405.10MHz Type=RS41-SG Details on http://radiosondy.info
G3HRZU27502012022-12-06 12:18:3353.913-3.160071933021620Clb=4.5m/s t=-63.5C h=1.7% p=-1.0hPa 405.101 MHz Type=RS41-SG ser=U2750201 Radiosonde
G3HRZU27502012022-12-06 12:17:1953.9151-3.15931903121489Clb=3.7m/s t=-63.1C h=1.6% p=-1.0hPa 405.101 MHz Type=RS41-SG ser=U2750201 Radiosonde
G3HRZU27502012022-12-06 12:16:0853.9182-3.15811993921343Clb=4.2m/s t=-62.9C h=1.6% p=-1.0hPa 405.101 MHz Type=RS41-SG ser=U2750201 Radiosonde
G3HRZU27502012022-12-06 12:15:5853.9215-3.156681894821196Clb=4.7m/s t=-62.4C h=1.5% p=-1.0hPa 405.101 MHz Type=RS41-SG ser=U2750201 Radiosonde
G3HRZU27502012022-12-06 12:15:5553.9251-3.155661825021049Clb=4.5m/s t=-62.3C h=1.5% p=-1.0hPa 405.101 MHz Type=RS41-SG ser=U2750201 Radiosonde
F5RZC-14U27502012022-12-06 12:15:5453.927-3.15561765220978Clb=4.9m/s t=-62.2C h=5.5% 405.10MHz Type=RS41-SG Details on http://radiosondy.info
F5RZC-14U27502012022-12-06 12:15:5253.9289-3.15591704820905Clb=5.4m/s t=-61.6C h=5.4% 405.10MHz Type=RS41-SG Details on http://radiosondy.info
F5RZC-14U27502012022-12-06 12:15:5053.9306-3.156451684120831Clb=5.2m/s t=-61.3C h=5.4% 405.10MHz Type=RS41-SG batt=2.7V Details on http://radiosondy.info
G3HRZU27502012022-12-06 12:15:4853.9325-3.157331663720744Clb=5.8m/s t=-61.0C h=1.4% p=-1.0hPa 405.101 MHz Type=RS41-SG ser=U2750201 Radiosonde
G3HRZU27502012022-12-06 12:15:4553.9359-3.158171724620586Clb=5.3m/s t=-60.2C h=1.3% p=-1.0hPa 405.101 MHz Type=RS41-SG ser=U2750201 Radiosonde
G3HRZU27502012022-12-06 12:15:2553.9389-3.158241752620428Clb=5.2m/s t=-59.9C h=1.3% p=-1.0hPa 405.101 MHz Type=RS41-SG ser=U2750201 Radiosonde
G4VFL-14U27502012022-12-06 12:15:2453.9391-3.158311692620412Clb=5.5m/s t=-59.8C h=5.0% 405.10MHz Type=RS41-SG batt=2.6V Details on http://radiosondy.info
G4VFL-14U27502012022-12-06 12:15:0653.9401-3.158361753520336Clb=4.7m/s t=-59.9C h=4.9% 405.10MHz Type=RS41-SG Details on http://radiosondy.info
G3HRZU27502012022-12-06 12:14:5353.9412-3.158581623720265Clb=4.7m/s t=-60.0C h=1.3% p=-1.0hPa 405.101 MHz Type=RS41-SG ser=U2750201 Radiosonde
G4VFL-14U27502012022-12-06 12:14:5053.9413-3.158621653120260Clb=5.4m/s t=-60.0C h=4.9% 405.10MHz Type=RS41-SG Details on http://radiosondy.info
G4VFL-14U27502012022-12-06 12:14:1553.9424-3.158931712820188Clb=4.3m/s t=-59.9C h=4.8% 405.10MHz Type=RS41-SG batt=2.6V Details on http://radiosondy.info
G3HRZU27502012022-12-06 12:13:4753.9434-3.159191742420120Clb=5.1m/s t=-60.3C h=1.4% p=-1.0hPa 405.101 MHz Type=RS41-SG ser=U2750201 Radiosonde
F5RZC-14U27502012022-12-06 12:13:4553.9435-3.15921732220116Clb=4.6m/s t=-60.4C h=5.0% 405.10MHz Type=RS41-SG Details on http://radiosondy.info
G4VFL-14U27502012022-12-06 12:13:4253.9435-3.159211732620111Clb=5.8m/s t=-60.4C h=5.0% 405.10MHz Type=RS41-SG Details on http://radiosondy.info
F5RZC-14U27502012022-12-06 12:13:1353.9443-3.159511903120048Clb=3.7m/s t=-60.7C h=5.1% 405.10MHz Type=RS41-SG TxPastBurst=8h30m batt=2.6V Details on http://radiosondy.info
G4VFL-14U27502012022-12-06 12:13:0753.9444-3.15951742220038Clb=4.3m/s t=-60.7C h=5.1% 405.10MHz Type=RS41-SG Details on http://radiosondy.info
G3HRZU27502012022-12-06 12:12:3753.945-3.159611752819982Clb=4.0m/s t=-60.8C h=1.4% p=-1.0hPa 405.101 MHz Type=RS41-SG ser=U2750201 Radiosonde
G4VFL-14U27502012022-12-06 12:12:3053.9453-3.159631793019969Clb=3.8m/s t=-60.6C h=5.1% 405.10MHz Type=RS41-SG TxPastBurst=8h30m batt=2.6V Details on http://radiosondy.info
G4VFL-14U27502012022-12-06 12:11:5453.9464-3.159541882819897Clb=4.7m/s t=-60.5C h=5.0% 405.10MHz Type=RS41-SG Details on http://radiosondy.info
G3HRZU27502012022-12-06 12:11:2353.9473-3.159171852619841Clb=5.0m/s t=-60.0C h=1.4% p=-1.0hPa 405.101 MHz Type=RS41-SG ser=U2750201 Radiosonde
G4VFL-14U27502012022-12-06 12:10:0754.001-3.161851832016931Clb=4.1m/s t=-59.1C h=5.0% 405.10MHz Type=RS41-SG batt=2.6V Details on http://radiosondy.info
F5RZC-14U27502012022-12-06 12:09:5254.0012-3.161811932016910Clb=4.3m/s t=-59.1C h=5.0% 405.10MHz Type=RS41-SG batt=2.6V Details on http://radiosondy.info
G3HRZU27502012022-12-06 12:09:4954.0012-3.161791892216905Clb=4.5m/s t=-59.0C h=1.7% p=-1.0hPa 405.101 MHz Type=RS41-SG ser=U2750201 Radiosonde
G4VFL-14U27502012022-12-06 12:09:2454.0017-3.16162042416870Clb=4.3m/s t=-59.1C h=5.1% 405.10MHz Type=RS41-SG Details on http://radiosondy.info
F5RZC-14U27502012022-12-06 12:09:1154.0019-3.161461982016848Clb=4.4m/s t=-59.1C h=5.0% 405.10MHz Type=RS41-SG Details on http://radiosondy.info
G4VFL-14U27502012022-12-06 12:08:4554.0026-3.161191912416803Clb=3.3m/s t=-59.0C h=5.1% 405.10MHz Type=RS41-SG Details on http://radiosondy.info
G3HRZU27502012022-12-06 12:08:3054.0029-3.16111882216779Clb=3.8m/s t=-59.0C h=1.7% p=-1.0hPa 405.101 MHz Type=RS41-SG ser=U2750201 Radiosonde
G3HRZU27502012022-12-06 12:07:0754.0052-3.160991753316654Clb=3.9m/s t=-58.7C h=1.7% p=-1.0hPa 405.101 MHz Type=RS41-SG ser=U2750201 Radiosonde
G3HRZU27502012022-12-06 12:05:5854.0074-3.161691592216523Clb=4.4m/s t=-58.1C h=1.6% p=-1.0hPa 405.101 MHz Type=RS41-SG ser=U2750201 Radiosonde
G4VFL-14U27502012022-12-06 12:05:5154.0075-3.161761632216514Clb=4.1m/s t=-58.0C h=4.8% 405.10MHz Type=RS41-SG TxPastBurst=8h30m batt=2.6V Details on http://radiosondy.info
G4VFL-14U27502012022-12-06 12:05:1454.0083-3.162291502216452Clb=4.2m/s t=-57.6C h=4.6% 405.10MHz Type=RS41-SG Details on http://radiosondy.info
G3HRZU27502012022-12-06 12:04:4054.009-3.162741602016395Clb=4.6m/s t=-57.5C h=1.5% p=-1.0hPa 405.101 MHz Type=RS41-SG ser=U2750201 Radiosonde
G4VFL-14U27502012022-12-06 12:04:3554.0091-3.162791602016387Clb=3.2m/s t=-57.4C h=4.6% 405.10MHz Type=RS41-SG Details on http://radiosondy.info
G4VFL-14U27502012022-12-06 12:03:5354.0099-3.163141622016322Clb=3.0m/s t=-57.5C h=4.7% 405.10MHz Type=RS41-SG batt=2.6V Details on http://radiosondy.info
F5RZC-14U27502012022-12-06 12:03:3854.0102-3.16331602216299Clb=4.0m/s t=-57.4C h=4.7% 405.10MHz Type=RS41-SG Details on http://radiosondy.info
G3HRZU27502012022-12-06 12:03:2154.0105-3.163471651916270Clb=3.9m/s t=-57.3C h=1.5% p=-1.0hPa 405.101 MHz Type=RS41-SG ser=U2750201 Radiosonde
G4VFL-14U27502012022-12-06 12:03:1654.0106-3.163521622616262Clb=4.7m/s t=-57.1C h=4.6% 405.10MHz Type=RS41-SG Details on http://radiosondy.info
F5RZC-14U27502012022-12-06 12:03:0354.011-3.163751582816236Clb=4.6m/s calibration 94% 405.10MHz Type=RS41-SG TxPastBurst=8h30m batt=2.7V Details on http://radiosondy.info
G4VFL-14U27502012022-12-06 12:02:4454.0115-3.164091622816200Clb=3.3m/s t=-56.6C h=4.5% 405.10MHz Type=RS41-SG Details on http://radiosondy.info
F5RZC-14U27502012022-12-06 12:02:3054.0119-3.16431672816176Clb=4.6m/s calibration 94% 405.10MHz Type=RS41-SG Details on http://radiosondy.info
G3HRZU27502012022-12-06 12:02:1554.0125-3.16461602816144Clb=3.6m/s t=-56.2C h=1.4% p=-1.0hPa 405.101 MHz Type=RS41-SG ser=U2750201 Radiosonde
G4VFL-14U27502012022-12-06 12:02:0954.0126-3.164671653116136Clb=3.2m/s t=-56.1C h=4.3% 405.10MHz Type=RS41-SG batt=2.7V Details on http://radiosondy.info
F5RZC-14U27502012022-12-06 12:01:5854.0129-3.164891632616117Clb=4.1m/s calibration 94% 405.10MHz Type=RS41-SG Details on http://radiosondy.info
G4VFL-14U27502012022-12-06 12:01:3754.0137-3.165321603516075Clb=4.6m/s t=-55.8C h=4.3% 405.10MHz Type=RS41-SG Details on http://radiosondy.info
G3HRZU27502012022-12-06 12:01:1054.0149-3.166011583716017Clb=3.8m/s t=-55.7C h=1.4% p=-1.0hPa 405.101 MHz Type=RS41-SG ser=U2750201 Radiosonde
G3HRZU27502012022-12-06 11:59:5554.0178-3.167931593115890Clb=3.2m/s t=-54.9C h=1.4% p=-1.0hPa 405.101 MHz Type=RS41-SG ser=U2750201 Radiosonde
G4VFL-14U27502012022-12-06 11:58:4054.0199-3.169861512815771Clb=5.2m/s t=-55.6C h=4.2% 405.10MHz Type=RS41-SG Details on http://radiosondy.info
G3HRZU27502012022-12-06 11:58:3354.0201-3.170051532815757Clb=4.8m/s t=-55.7C h=1.4% p=-1.0hPa 405.101 MHz Type=RS41-SG ser=U2750201 Radiosonde
G4VFL-14U27502012022-12-06 11:57:5754.0207-3.170841382215706Clb=4.4m/s t=-55.9C h=4.4% 405.10MHz Type=RS41-SG TxPastBurst=8h30m batt=2.7V Details on http://radiosondy.info
G4VFL-14U27502012022-12-06 11:57:2054.0212-3.172061201715637Clb=3.6m/s t=-56.1C h=4.4% 405.10MHz Type=RS41-SG Details on http://radiosondy.info
G3HRZU27502012022-12-06 11:57:1454.0213-3.172281031315625Clb=3.9m/s t=-56.1C h=1.5% p=-1.0hPa 405.101 MHz Type=RS41-SG ser=U2750201 Radiosonde
F5RZC-14U27502012022-12-06 11:56:5154.0214-3.17293901915578Clb=4.1m/s calibration 92% 405.10MHz Type=RS41-SG batt=2.7V Details on http://radiosondy.info
G4VFL-14U27502012022-12-06 11:56:4854.0214-3.17308801915570Clb=4.3m/s t=-56.0C h=4.3% 405.10MHz Type=RS41-SG Details on http://radiosondy.info
F5RZC-14U27502012022-12-06 11:56:1854.0213-3.17412881915517Clb=4.0m/s calibration 88% 405.10MHz Type=RS41-SG Details on http://radiosondy.info
G4VFL-14U27502012022-12-06 11:56:1354.0213-3.17435921915504Clb=3.9m/s t=-55.5C h=4.2% 405.10MHz Type=RS41-SG batt=2.7V Details on http://radiosondy.info
G3HRZU27502012022-12-06 11:56:1154.0214-3.1745941915496Clb=4.0m/s t=-55.4C h=1.4% p=-1.0hPa 405.101 MHz Type=RS41-SG ser=U2750201 Radiosonde
F5RZC-14U27502012022-12-06 11:55:4854.0213-3.175261001715455Clb=5.1m/s calibration 78% 405.10MHz Type=RS41-SG Details on http://radiosondy.info
G4VFL-14U27502012022-12-06 11:55:4154.0214-3.175541082015437Clb=3.9m/s t=-55.5C h=4.2% 405.10MHz Type=RS41-SG Details on http://radiosondy.info
F5RZC-14U27502012022-12-06 11:55:1554.0215-3.17641202015390Clb=3.5m/s calibration 68% 405.10MHz Type=RS41-SG batt=2.6V Details on http://radiosondy.info
G4VFL-14U27502012022-12-06 11:55:0654.0216-3.176741242015373Clb=4.6m/s t=-55.2C h=4.1% 405.10MHz Type=RS41-SG Details on http://radiosondy.info
G3HRZU27502012022-12-06 11:55:0254.0217-3.176881201715364Clb=4.2m/s t=-55.2C h=1.4% p=-1.0hPa 405.101 MHz Type=RS41-SG ser=U2750201 Radiosonde
G4VFL-14U27502012022-12-06 11:54:2854.0219-3.177861302215309Clb=4.0m/s t=-55.3C h=4.2% 405.10MHz Type=RS41-SG batt=2.7V Details on http://radiosondy.info
G3HRZU27502012022-12-06 11:53:4854.0225-3.179151272015235Clb=5.0m/s t=-55.2C h=1.4% p=-1.0hPa 405.101 MHz Type=RS41-SG ser=U2750201 Radiosonde
G3HRZU27502012022-12-06 11:52:2854.0232-3.1807169915106Clb=4.6m/s t=-55.1C h=1.5% p=-1.0hPa 405.101 MHz Type=RS41-SG ser=U2750201 Radiosonde
G3HRZU27502012022-12-06 11:51:4554.0245-3.181421672814981Clb=4.3m/s t=-55.1C h=1.5% p=-1.0hPa 405.101 MHz Type=RS41-SG ser=U2750201 Radiosonde
G4VFL-14U27502012022-12-06 11:51:2854.0257-3.18191622214904Clb=4.6m/s t=-55.7C h=4.2% 405.10MHz Type=RS41-SG Details on http://radiosondy.info
G3HRZU27502012022-12-06 11:51:0954.0263-3.182251492414856Clb=3.1m/s t=-56.6C h=1.6% p=-1.0hPa 405.101 MHz Type=RS41-SG ser=U2750201 Radiosonde
G4VFL-14U27502012022-12-06 11:51:0654.0265-3.182391602614845Clb=3.0m/s t=-56.6C h=4.5% 405.10MHz Type=RS41-SG TxPastBurst=8h30m batt=2.7V Details on http://radiosondy.info
G4VFL-14U27502012022-12-06 11:50:5054.0273-3.182971612014786Clb=4.7m/s t=-56.3C h=4.4% 405.10MHz Type=RS41-SG Details on http://radiosondy.info
F5RZC-14U27502012022-12-06 11:50:4954.0274-3.183011642014782Clb=3.7m/s calibration 58% 405.10MHz Type=RS41-SG Details on http://radiosondy.info
G3HRZU27502012022-12-06 11:50:4754.028-3.183441482014733Clb=4.3m/s t=-56.2C h=1.5% p=-1.0hPa 405.101 MHz Type=RS41-SG ser=U2750201 Radiosonde
F5RZC-14U27502012022-12-06 11:50:4654.0281-3.183591432014721Clb=4.3m/s calibration 37% Type=RS41-SG Details on http://radiosondy.info
F5RZC-14U27502012022-12-06 11:50:2754.0288-3.184061621714660Clb=3.2m/s calibration 9% Type=RS41 batt=2.6V Details on http://radiosondy.info
G4VFL-14U27502012022-12-06 11:50:2454.0289-3.184141571514647Clb=3.7m/s t=-55.8C h=4.3% 405.10MHz Type=RS41-SG batt=2.7V Details on http://radiosondy.info
G3HRZU27502012022-12-06 11:50:1154.0293-3.184341621314606Clb=4.8m/s t=-55.9C h=1.5% p=-1.0hPa 405.101 MHz Type=RS41-SG ser=U2750201 Radiosonde
G4VFL-14U27502012022-12-06 11:50:0654.0295-3.184471521914582Clb=4.9m/s t=-55.8C h=4.3% 405.10MHz Type=RS41-SG Details on http://radiosondy.info
G3HRZU27502012022-12-06 11:49:5854.0303-3.185521361114473Clb=3.7m/s t=-55.5C h=1.5% p=-1.0hPa 405.101 MHz Type=RS41-SG ser=U2750201 Radiosonde
G3HRZU27502012022-12-06 11:49:4854.0306-3.186871091314335Clb=5.0m/s t=-56.3C h=1.6% p=-1.0hPa 405.101 MHz Type=RS41-SG ser=U2750201 Radiosonde
G4VFL-14U27502012022-12-06 11:49:4354.0309-3.187591421914272Clb=3.6m/s t=-56.3C h=4.5% 405.10MHz Type=RS41-SG Details on http://radiosondy.info
G4VFL-14U27502012022-12-06 11:49:2754.0315-3.188411492014208Clb=3.1m/s t=-55.8C h=4.5% 405.10MHz Type=RS41-SG batt=2.6V Details on http://radiosondy.info
G3HRZU27502012022-12-06 11:49:2554.0316-3.18851491914199Clb=4.2m/s t=-55.7C h=1.7% p=-1.0hPa 405.101 MHz Type=RS41-SG ser=U2750201 Radiosonde
G4VFL-14U27502012022-12-06 11:49:0954.0321-3.189031581914146Clb=4.8m/s t=-55.3C h=4.1% 405.10MHz Type=RS41-SG Details on http://radiosondy.info
G4VFL-14U27502012022-12-06 11:48:5854.0327-3.189491692214081Clb=4.0m/s t=-55.6C h=4.2% 405.10MHz Type=RS41-SG Details on http://radiosondy.info
G4VFL-14U27502012022-12-06 11:48:5154.0336-3.189821732614013Clb=3.7m/s t=-56.6C h=4.5% 405.10MHz Type=RS41-SG TxPastBurst=8h30m batt=2.7V Details on http://radiosondy.info
G4VFL-14U27502012022-12-06 11:48:5054.0346-3.190431473113947Clb=4.0m/s t=-57.0C h=4.7% 405.10MHz Type=RS41-SG Details on http://radiosondy.info
G4VFL-14U27502012022-12-06 11:48:4954.0356-3.191721483313885Clb=3.1m/s t=-56.5C h=4.6% 405.10MHz Type=RS41-SG Details on http://radiosondy.info
M0NRDU27502012022-12-06 11:48:4854.0364-3.192821403013840Clb=4.3m/s t=-56.3C h=1.7% p=-1.0hPa 405.101 MHz Type=RS41-SG Radiosonde
M0NRDU27502012022-12-06 11:48:4554.0381-3.195391393913739Clb=4.3m/s t=-55.9C h=1.7% p=-1.0hPa 405.101 MHz Type=RS41-SG Radiosonde
G3HRZU27502012022-12-06 11:48:4454.0387-3.196181432813707Clb=3.9m/s t=-55.6C h=1.7% p=-1.0hPa 405.101 MHz Type=RS41-SG ser=U2750201 Radiosonde
M0NRDU27502012022-12-06 11:48:4354.04-3.197961333513627Clb=3.5m/s t=-55.4C h=-1.0% p=-1.0hPa 405.101 MHz Type=RS41-SG Radiosonde
G3HRZU27502012022-12-06 11:48:4254.0405-3.198811432813593Clb=3.7m/s t=-55.3C h=1.7% p=-1.0hPa 405.101 MHz Type=RS41-SG ser=U2750201 Radiosonde
G4VFL-14U27502012022-12-06 11:48:4154.0411-3.199471543313553Clb=3.9m/s t=-55.3C h=4.4% 405.10MHz Type=RS41-SG Details on http://radiosondy.info
M0NRDU27502012022-12-06 11:48:4054.0424-3.200541503713487Clb=4.0m/s t=-56.1C h=-1.0% p=-1.0hPa 405.101 MHz Type=RS41-SG Radiosonde
G4VFL-14U27502012022-12-06 11:48:3954.0437-3.201711604313429Clb=4.8m/s t=-55.7C h=4.7% 405.10MHz Type=RS41-SG batt=2.7V Details on http://radiosondy.info
M0NRDU27502012022-12-06 11:48:3854.0452-3.20271634313362Clb=5.1m/s t=-55.8C h=-1.0% p=-1.0hPa 405.101 MHz Type=RS41-SG Radiosonde
G4VFL-14U27502012022-12-06 11:48:3754.0471-3.203541654413280Clb=4.0m/s t=-55.6C h=4.8% 405.10MHz Type=RS41-SG Details on http://radiosondy.info
M0NRDU27502012022-12-06 11:48:3654.0484-3.204091664113226Clb=5.2m/s t=-55.7C h=-1.0% p=-1.0hPa 405.101 MHz Type=RS41-SG Radiosonde
G4VFL-14U27502012022-12-06 11:48:3554.0488-3.204251653713208Clb=4.1m/s t=-55.6C h=4.7% 405.10MHz Type=RS41-SG TxPastBurst=8h30m batt=2.7V Details on http://radiosondy.info
G3HRZU27502012022-12-06 11:48:3354.0493-3.204431703313182Clb=4.1m/s t=-55.6C h=2.0% p=-1.0hPa 405.101 MHz Type=RS41-SG ser=U2750201 Radiosonde
G4VFL-14U27502012022-12-06 11:48:2454.0501-3.204751633113141Clb=5.0m/s t=-56.1C h=4.9% 405.10MHz Type=RS41-SG Details on http://radiosondy.info
M0NRDU27502012022-12-06 11:47:5954.051-3.205031673113088Clb=4.9m/s t=-56.3C h=-1.0% p=-1.0hPa 405.101 MHz Type=RS41 Radiosonde
G4VFL-14U27502012022-12-06 11:47:5054.0513-3.205151613313072Clb=3.9m/s t=-56.5C h=5.0% 405.10MHz Type=RS41-SG Details on http://radiosondy.info
G3HRZU27502012022-12-06 11:47:3854.0517-3.205561483713045Clb=4.7m/s t=-56.6C h=2.2% p=-1.0hPa 405.101 MHz Type=RS41-SG ser=U2750201 Radiosonde
M0NRDU27502012022-12-06 11:46:5254.0534-3.206921552612945Clb=4.7m/s t=-56.5C h=-1.0% p=-1.0hPa 405.101 MHz Type=RS41 Radiosonde
G3HRZU27502012022-12-06 11:46:3554.0539-3.207331473012916Clb=4.6m/s t=-56.4C h=2.2% p=-1.0hPa 405.101 MHz Type=RS41-SG ser=U2750201 Radiosonde
M0NRDU27502012022-12-06 11:45:5454.055-3.208691442412825Clb=4.1m/s t=-273.0C h=-1.0% p=-1.0hPa 405.101 MHz Type=RS41 Radiosonde
G3HRZU27502012022-12-06 11:45:3654.0554-3.209071451912786Clb=3.8m/s t=-55.9C h=2.2% p=-1.0hPa 405.101 MHz Type=RS41-SG ser=U2750201 Radiosonde
G4VFL-14U27502012022-12-06 11:45:3554.0554-3.209071462212786Clb=3.7m/s t=-55.9C h=5.0% 405.10MHz Type=RS41-SG batt=2.7V Details on http://radiosondy.info
G4VFL-14U27502012022-12-06 11:45:0454.0562-3.209741592412713Clb=5.4m/s t=-55.2C h=4.9% 405.10MHz Type=RS41-SG Details on http://radiosondy.info
M0NRDU27502012022-12-06 11:44:5454.0566-3.20991772212684Clb=3.8m/s t=-273.0C h=-1.0% p=-1.0hPa 405.101 MHz Type=RS41 Radiosonde
G3HRZU27502012022-12-06 11:44:3554.0571-3.210011712412646Clb=6.0m/s t=-54.7C h=2.1% p=-1.0hPa 405.101 MHz Type=RS41-SG ser=U2750201 Radiosonde
G4VFL-14U27502012022-12-06 11:44:3454.0571-3.210011722812646Clb=6.0m/s t=-54.7C h=4.6% 405.10MHz Type=RS41-SG Details on http://radiosondy.info
G4VFL-14U27502012022-12-06 11:44:0154.0582-3.210241823312572Clb=3.5m/s t=-54.7C h=4.9% 405.10MHz Type=RS41-SG batt=2.7V Details on http://radiosondy.info
M0NRDU27502012022-12-06 11:43:5154.0591-3.210251773012536Clb=4.4m/s t=-273.0C h=-1.0% p=-1.0hPa 405.101 MHz Type=RS41 Radiosonde
G3HRZU27502012022-12-06 11:43:3454.0594-3.210291743012516Clb=3.8m/s t=-54.5C h=2.3% p=-1.0hPa 405.101 MHz Type=RS41-SG ser=U2750201 Radiosonde
G4VFL-14U27502012022-12-06 11:43:3154.0595-3.210311732812512Clb=3.9m/s t=-54.5C h=4.8% 405.10MHz Type=RS41-SG Details on http://radiosondy.info
G4VFL-14U27502012022-12-06 11:42:5954.0606-3.210551752612453Clb=4.3m/s t=-54.1C h=5.0% 405.10MHz Type=RS41-SG Details on http://radiosondy.info
G3HRZU27502012022-12-06 11:42:2754.0615-3.210741882812386Clb=4.2m/s t=-53.9C h=2.5% p=-1.0hPa 405.101 MHz Type=RS41-SG ser=U2750201 Radiosonde
G4VFL-14U27502012022-12-06 11:42:2254.0616-3.210721793712377Clb=5.1m/s t=-53.8C h=4.9% 405.10MHz Type=RS41-SG TxPastBurst=8h30m batt=2.7V Details on http://radiosondy.info
G4VFL-14U27502012022-12-06 11:41:5154.0631-3.210641844612302Clb=3.0m/s t=-55.1C h=5.4% 405.10MHz Type=RS41-SG Details on http://radiosondy.info
G3HRZU27502012022-12-06 11:41:2654.0647-3.210581815212253Clb=3.6m/s t=-55.3C h=3.0% p=-1.0hPa 405.101 MHz Type=RS41-SG ser=U2750201 Radiosonde
G3HRZU27502012022-12-06 11:40:2854.0686-3.210421824612132Clb=3.9m/s t=-55.2C h=3.4% p=-1.0hPa 405.101 MHz Type=RS41-SG ser=U2750201 Radiosonde
G4VFL-14U27502012022-12-06 11:39:4854.0717-3.210581774312019Clb=4.7m/s t=-55.2C h=6.6% 405.10MHz Type=RS41-SG Details on http://radiosondy.info
G3HRZU27502012022-12-06 11:39:4554.0719-3.210621763912005Clb=4.4m/s t=-55.5C h=4.0% p=-1.0hPa 405.101 MHz Type=RS41-SG ser=U2750201 Radiosonde
G4VFL-14U27502012022-12-06 11:39:3654.0734-3.210861725011951Clb=3.9m/s t=-56.0C h=7.3% 405.10MHz Type=RS41-SG batt=2.7V Details on http://radiosondy.info
G4VFL-14U27502012022-12-06 11:39:1954.0753-3.211461655611888Clb=4.7m/s t=-56.7C h=8.1% 405.10MHz Type=RS41-SG Details on http://radiosondy.info
G3HRZU27502012022-12-06 11:39:1654.0757-3.211671625611876Clb=3.6m/s t=-56.7C h=5.0% p=-1.0hPa 405.101 MHz Type=RS41-SG ser=U2750201 Radiosonde
G4VFL-14U27502012022-12-06 11:39:0154.0774-3.212621655611823Clb=4.5m/s t=-56.3C h=8.4% 405.10MHz Type=RS41-SG Details on http://radiosondy.info
G4VFL-14U27502012022-12-06 11:38:4654.0794-3.213681625211763Clb=3.1m/s t=-56.3C h=8.6% 405.10MHz Type=RS41-SG batt=2.7V Details on http://radiosondy.info
G3HRZU27502012022-12-06 11:38:4354.08-3.214021624811743Clb=3.8m/s t=-56.7C h=5.9% p=-1.0hPa 405.101 MHz Type=RS41-SG ser=U2750201 Radiosonde
G4VFL-14U27502012022-12-06 11:38:3054.0812-3.214871574611699Clb=3.2m/s t=-56.8C h=9.6% 405.10MHz Type=RS41-SG Details on http://radiosondy.info
G4VFL-14U27502012022-12-06 11:38:1554.0829-3.216271544611635Clb=3.7m/s t=-56.5C h=9.8% 405.10MHz Type=RS41-SG Details on http://radiosondy.info
G3HRZU27502012022-12-06 11:38:1354.0832-3.216531514611624Clb=3.7m/s t=-56.6C h=6.8% p=-1.0hPa 405.101 MHz Type=RS41-SG ser=U2750201 Radiosonde
G4VFL-14U27502012022-12-06 11:37:5954.0846-3.21781544311577Clb=3.1m/s t=-57.2C h=11.1% 405.10MHz Type=RS41-SG TxPastBurst=8h30m batt=2.6V Details on http://radiosondy.info
G3HRZU27502012022-12-06 11:37:4254.086-3.219691283711507Clb=3.9m/s t=-57.0C h=8.1% p=-1.0hPa 405.101 MHz Type=RS41-SG ser=U2750201 Radiosonde
G3HRZU27502012022-12-06 11:37:1054.0876-3.223341203111395Clb=3.4m/s t=-56.9C h=9.9% p=-1.0hPa 405.101 MHz Type=RS41-SG ser=U2750201 Radiosonde
G4VFL-14U27502012022-12-06 11:36:4854.0887-3.225681292811322Clb=3.7m/s t=-58.4C h=16.0% 405.10MHz Type=RS41-SG Details on http://radiosondy.info
G3HRZU27502012022-12-06 11:36:3954.089-3.226791082211284Clb=3.6m/s t=-58.3C h=12.2% p=-1.0hPa 405.101 MHz Type=RS41-SG ser=U2750201 Radiosonde
G4VFL-14U27502012022-12-06 11:36:3254.0892-3.227341142211261Clb=3.5m/s t=-58.0C h=15.7% 405.10MHz Type=RS41-SG Details on http://radiosondy.info
G4VFL-14U27502012022-12-06 11:36:2954.0893-3.2289961911195Clb=4.1m/s t=-57.7C h=15.1% 405.10MHz Type=RS41-SG batt=2.7V Details on http://radiosondy.info
G3HRZU27502012022-12-06 11:36:2854.0894-3.22954991511164Clb=4.6m/s t=-57.5C h=11.6% p=-1.0hPa 405.101 MHz Type=RS41-SG ser=U2750201 Radiosonde
G4VFL-14U27502012022-12-06 11:36:2754.0896-3.230831331111069Clb=4.1m/s t=-56.9C h=14.9% 405.10MHz Type=RS41-SG Details on http://radiosondy.info
G3HRZU27502012022-12-06 11:36:2654.0898-3.23114129711033Clb=3.7m/s t=-56.7C h=11.1% p=-1.0hPa 405.101 MHz Type=RS41-SG ser=U2750201 Radiosonde
G4VFL-14U27502012022-12-06 11:36:2554.0899-3.231311481111006Clb=4.7m/s t=-56.5C h=14.4% 405.10MHz Type=RS41-SG batt=2.7V Details on http://radiosondy.info
G4VFL-14U27502012022-12-06 11:36:2454.0903-3.231621571710946Clb=3.8m/s t=-56.5C h=14.2% 405.10MHz Type=RS41-SG Details on http://radiosondy.info
G4VFL-14U27502012022-12-06 11:36:2354.0909-3.23171905010883Clb=3.7m/s t=-56.4C h=14.7% 405.10MHz Type=RS41-SG Details on http://radiosondy.info
G3HRZU27502012022-12-06 11:36:1854.0928-3.231941883110740Clb=7.0m/s t=-55.6C h=10.0% p=-1.0hPa 405.101 MHz Type=RS41-SG ser=U2750201 Radiosonde
G3HRZU27502012022-12-06 11:35:4654.0967-3.231781785710591Clb=4.1m/s t=-55.4C h=10.3% p=-1.0hPa 405.101 MHz Type=RS41-SG ser=U2750201 Radiosonde
G4VFL-14U27502012022-12-06 11:34:5854.1007-3.232241756510492Clb=3.1m/s t=-54.7C h=13.7% 405.10MHz Type=RS41-SG TxPastBurst=8h30m batt=2.7V Details on http://radiosondy.info
G3HRZU27502012022-12-06 11:34:5254.1013-3.232351746110478Clb=2.4m/s t=-54.7C h=10.4% p=-1.0hPa 405.101 MHz Type=RS41-SG ser=U2750201 Radiosonde
G4VFL-14U27502012022-12-06 11:34:2954.1032-3.232771746110439Clb=4.0m/s t=-54.3C h=13.3% 405.10MHz Type=RS41-SG Details on http://radiosondy.info
G4VFL-14U27502012022-12-06 11:34:0054.1054-3.233391725910390Clb=3.5m/s t=-54.1C h=13.7% 405.10MHz Type=RS41-SG Details on http://radiosondy.info
G3HRZU27502012022-12-06 11:33:5354.1062-3.233581685710376Clb=3.6m/s t=-54.1C h=10.7% p=-1.0hPa 405.101 MHz Type=RS41-SG ser=U2750201 Radiosonde
G4VFL-14U27502012022-12-06 11:33:3154.1078-3.23431646110346Clb=3.8m/s t=-53.9C h=14.5% 405.10MHz Type=RS41-SG batt=2.7V Details on http://radiosondy.info
G4VFL-14U27502012022-12-06 11:32:3154.1126-3.237611548010305Clb=2.3m/s t=-53.9C h=14.9% 405.10MHz Type=RS41-SG Details on http://radiosondy.info
G3HRZU27502012022-12-06 11:32:0254.1151-3.240011445910147Clb=4.1m/s t=-54.7C h=13.8% p=-1.0hPa 405.101 MHz Type=RS41-SG ser=U2750201 Radiosonde
G4VFL-14U27502012022-12-06 11:31:5954.1152-3.240171394810143Clb=4.7m/s t=-54.7C h=17.5% 405.10MHz Type=RS41-SG batt=2.7V Details on http://radiosondy.info
G3HRZU27502012022-12-06 11:31:2854.118-3.244211334810008Clb=4.4m/s t=-54.9C h=16.5% p=-1.0hPa 405.101 MHz Type=RS41-SG ser=U2750201 Radiosonde
G3HRZU27502012022-12-06 11:31:1354.1204-3.24884130419879Clb=3.5m/s t=-273.0C h=-1.0% p=-1.0hPa 405.101 MHz Type=RS41-SG ser=U2750201 Radiosonde
G4VFL-14U27502012022-12-06 11:31:1254.1215-3.25129128439812Clb=3.1m/s t=-54.2C h=24.1% 405.10MHz Type=RS41-SG Details on http://radiosondy.info
G3HRZU27502012022-12-06 11:31:1154.1222-3.25287124419770Clb=4.1m/s t=-273.0C h=-1.0% p=-1.0hPa 405.101 MHz Type=RS41-SG ser=U2750201 Radiosonde
G4VFL-14U27502012022-12-06 11:31:1054.1233-3.25603120379689Clb=3.0m/s t=-54.2C h=25.6% 405.10MHz Type=RS41-SG TxPastBurst=8h30m batt=2.7V Details on http://radiosondy.info
G3HRZU27502012022-12-06 11:31:0354.1237-3.25755116359647Clb=3.7m/s t=-273.0C h=-1.0% p=-1.0hPa 405.101 MHz Type=RS41-SG ser=U2750201 Radiosonde
G4VFL-14U27502012022-12-06 11:30:5654.1239-3.25824118399628Clb=4.1m/s t=-54.1C h=26.5% 405.10MHz Type=RS41-SG Details on http://radiosondy.info
G4VFL-14U27502012022-12-06 11:30:3154.1247-3.26056122379566Clb=3.4m/s t=-54.0C h=27.1% 405.10MHz Type=RS41-SG Details on http://radiosondy.info
G3HRZU27502012022-12-06 11:30:1854.1251-3.26186122379530Clb=4.3m/s t=-273.0C h=-1.0% p=-1.0hPa 405.101 MHz Type=RS41-SG ser=U2750201 Radiosonde
G4VFL-14U27502012022-12-06 11:30:0654.1254-3.26275123359501Clb=3.7m/s t=-53.7C h=27.7% 405.10MHz Type=RS41-SG batt=2.7V Details on http://radiosondy.info
G4VFL-14U27502012022-12-06 11:29:4154.1262-3.26473126449435Clb=4.5m/s t=-53.4C h=29.3% 405.10MHz Type=RS41-SG Details on http://radiosondy.info
G3HRZU27502012022-12-06 11:29:2954.1268-3.26591130379390Clb=4.6m/s t=-273.0C h=-1.0% p=-1.0hPa 405.101 MHz Type=RS41-SG ser=U2750201 Radiosonde
G4VFL-14U27502012022-12-06 11:27:3654.1331-3.27579137509082Clb=4.1m/s t=-50.7C h=27.2% 405.10MHz Type=RS41-SG Details on http://radiosondy.info
G4VFL-14U27502012022-12-06 11:27:2054.1347-3.27821140529018Clb=3.7m/s t=-50.4C h=29.5% 405.10MHz Type=RS41-SG batt=2.7V Details on http://radiosondy.info
G4VFL-14U27502012022-12-06 11:27:0354.1362-3.2806132508957Clb=3.1m/s t=-50.2C h=32.5% 405.10MHz Type=RS41-SG Details on http://radiosondy.info
G4VFL-14U27502012022-12-06 11:26:4754.1375-3.28323128528897Clb=2.8m/s t=-49.7C h=39.1% 405.10MHz Type=RS41-SG Details on http://radiosondy.info
G4VFL-14U27502012022-12-06 11:26:3154.1388-3.28597127528839Clb=3.3m/s t=-49.1C h=43.6% 405.10MHz Type=RS41-SG TxPastBurst=8h30m batt=2.7V Details on http://radiosondy.info
G4VFL-14U27502012022-12-06 11:26:1954.1414-3.29137130548728Clb=3.5m/s t=-48.3C h=58.1% 405.10MHz Type=RS41-SG Details on http://radiosondy.info
G3HRZU27502012022-12-06 11:26:1854.1426-3.29403127528674Clb=2.9m/s t=-273.0C h=-1.0% p=-1.0hPa 405.101 MHz Type=RS41-SG ser=U2750201 Radiosonde
G3HRZU27502012022-12-06 11:25:5454.1448-3.29949121548561Clb=3.8m/s t=-273.0C h=-1.0% p=-1.0hPa 405.101 MHz Type=RS41-SG ser=U2750201 Radiosonde
G4VFL-14U27502012022-12-06 11:25:1454.1467-3.30419124548471Clb=3.4m/s t=-46.2C h=67.3% 405.10MHz Type=RS41-SG batt=2.7V Details on http://radiosondy.info
G3HRZU27502012022-12-06 11:25:0554.1473-3.30568127528440Clb=3.1m/s t=-273.0C h=-1.0% p=-1.0hPa 405.101 MHz Type=RS41-SG ser=U2750201 Radiosonde
G4VFL-14U27502012022-12-06 11:24:5054.1479-3.30716127568414Clb=4.0m/s t=-46.0C h=69.1% 405.10MHz Type=RS41-SG Details on http://radiosondy.info
G4VFL-14U27502012022-12-06 11:24:2854.1492-3.30998129568361Clb=2.8m/s t=-45.5C h=71.4% 405.10MHz Type=RS41-SG Details on http://radiosondy.info
G4VFL-14U27502012022-12-06 11:24:0154.1506-3.31334126568298Clb=2.8m/s t=-44.9C h=66.6% 405.10MHz Type=RS41-SG batt=2.7V Details on http://radiosondy.info
G4VFL-14U27502012022-12-06 11:23:4654.1517-3.31622127548243Clb=4.3m/s t=-44.5C h=64.5% 405.10MHz Type=RS41-SG Details on http://radiosondy.info
G4VFL-14U27502012022-12-06 11:23:3054.153-3.31918126548185Clb=4.3m/s t=-44.0C h=71.7% 405.10MHz Type=RS41-SG Details on http://radiosondy.info
G4VFL-14U27502012022-12-06 11:23:1554.1542-3.32189132548131Clb=4.4m/s t=-43.6C h=75.3% 405.10MHz Type=RS41-SG TxPastBurst=8h30m batt=2.7V Details on http://radiosondy.info
G3HRZU27502012022-12-06 11:23:1154.1546-3.32261128548117Clb=3.4m/s t=-273.0C h=-1.0% p=-1.0hPa 405.101 MHz Type=RS41-SG ser=U2750201 Radiosonde
G4VFL-14U27502012022-12-06 11:22:5954.1556-3.3247130528073Clb=3.4m/s t=-43.2C h=67.0% 405.10MHz Type=RS41-SG Details on http://radiosondy.info
G3HRZU27502012022-12-06 11:22:4054.1577-3.32867136567988Clb=3.9m/s t=-273.0C h=-1.0% p=-1.0hPa 405.101 MHz Type=RS41-SG ser=U2750201 Radiosonde
G4VFL-14U27502012022-12-06 11:21:5154.1625-3.33721130467778Clb=4.3m/s t=-41.8C h=68.1% 405.10MHz Type=RS41-SG Details on http://radiosondy.info
G4VFL-14U27502012022-12-06 11:21:0054.1663-3.34577122437559Clb=3.3m/s t=-40.6C h=74.8% 405.10MHz Type=RS41-SG batt=2.7V Details on http://radiosondy.info
G4VFL-14U27502012022-12-06 11:20:3654.1673-3.34842124437491Clb=4.1m/s t=-40.0C h=73.8% 405.10MHz Type=RS41-SG Details on http://radiosondy.info
G4VFL-14U27502012022-12-06 11:20:1854.1682-3.35069122417434Clb=3.9m/s t=-39.8C h=75.0% 405.10MHz Type=RS41-SG Details on http://radiosondy.info
G4VFL-14U27502012022-12-06 11:19:5854.1691-3.35299129417372Clb=3.2m/s t=-39.3C h=74.0% 405.10MHz Type=RS41-SG batt=2.7V Details on http://radiosondy.info
G4VFL-14U27502012022-12-06 11:18:3554.1742-3.36374127357022Clb=6.5m/s t=-36.1C h=67.1% 405.10MHz Type=RS41-SG Details on http://radiosondy.info
G4VFL-14U27502012022-12-06 11:18:1954.175-3.36575133376942Clb=3.3m/s t=-35.4C h=67.4% 405.10MHz Type=RS41-SG Details on http://radiosondy.info
G4VFL-14U27502012022-12-06 11:18:0354.1758-3.3678116356870Clb=3.5m/s t=-34.8C h=66.6% 405.10MHz Type=RS41-SG TxPastBurst=8h30m batt=2.7V Details on http://radiosondy.info
G4VFL-14U27502012022-12-06 11:17:4854.1765-3.36985118356811Clb=3.5m/s t=-34.4C h=66.3% 405.10MHz Type=RS41-SG Details on http://radiosondy.info
G4VFL-14U27502012022-12-06 11:17:3354.1773-3.37194127356753Clb=3.9m/s t=-34.0C h=66.4% 405.10MHz Type=RS41-SG Details on http://radiosondy.info
G4VFL-14U27502012022-12-06 11:17:3054.1782-3.37384129356700Clb=3.1m/s t=-33.6C h=67.3% 405.10MHz Type=RS41-SG batt=2.7V Details on http://radiosondy.info
G4VFL-14U27502012022-12-06 11:17:1854.1791-3.37548137376653Clb=3.0m/s t=-33.2C h=69.6% 405.10MHz Type=RS41-SG Details on http://radiosondy.info
G4VFL-14U27502012022-12-06 11:15:4854.1835-3.38333142396412Clb=1.9m/s t=-31.7C h=68.3% 405.10MHz Type=RS41-SG Details on http://radiosondy.info
G4VFL-14U27502012022-12-06 11:15:3354.1846-3.38484140416368Clb=2.2m/s t=-31.3C h=66.5% 405.10MHz Type=RS41-SG batt=2.9V Details on http://radiosondy.info
G4VFL-14U27502012022-12-06 11:15:1754.1859-3.38647146446322Clb=2.0m/s t=-31.0C h=62.7% 405.10MHz Type=RS41-SG Details on http://radiosondy.info
G4VFL-14U27502012022-12-06 11:15:0154.1874-3.38814148466273Clb=2.9m/s t=-30.8C h=66.7% 405.10MHz Type=RS41-SG Details on http://radiosondy.info
G4VFL-14U27502012022-12-06 11:14:4554.189-3.38986150466231Clb=2.1m/s t=-30.6C h=70.3% 405.10MHz Type=RS41-SG TxPastBurst=8h30m batt=2.9V Details on http://radiosondy.info
G4VFL-14U27502012022-12-06 11:14:2954.1906-3.39149149466188Clb=3.0m/s t=-30.3C h=69.5% 405.10MHz Type=RS41-SG Details on http://radiosondy.info
G4VFL-14U27502012022-12-06 11:14:1454.1921-3.39287155446144Clb=2.4m/s t=-30.0C h=71.1% 405.10MHz Type=RS41-SG Details on http://radiosondy.info
G4VFL-14U27502012022-12-06 11:13:5954.1936-3.3943147466099Clb=2.2m/s t=-29.7C h=73.8% 405.10MHz Type=RS41-SG batt=2.9V Details on http://radiosondy.info
G4VFL-14U27502012022-12-06 11:12:3954.2028-3.40032161445796Clb=4.3m/s t=-27.5C h=83.5% 405.10MHz Type=RS41-SG Details on http://radiosondy.info
G4VFL-14U27502012022-12-06 11:12:2054.2043-3.40138160435738Clb=4.7m/s t=-27.0C h=82.8% 405.10MHz Type=RS41-SG Details on http://radiosondy.info
G4VFL-14U27502012022-12-06 11:12:0354.2059-3.40255160415675Clb=4.0m/s t=-26.5C h=84.5% 405.10MHz Type=RS41-SG batt=2.9V Details on http://radiosondy.info
G4VFL-14U27502012022-12-06 11:11:4754.2074-3.40368157435610Clb=4.7m/s t=-26.0C h=83.5% 405.10MHz Type=RS41-SG Details on http://radiosondy.info
G4VFL-14U27502012022-12-06 11:11:3154.209-3.40473158415546Clb=4.0m/s t=-25.4C h=81.2% 405.10MHz Type=RS41-SG Details on http://radiosondy.info
G4VFL-14U27502012022-12-06 11:11:1454.2106-3.40585159415475Clb=4.5m/s t=-24.9C h=80.7% 405.10MHz Type=RS41-SG TxPastBurst=8h30m batt=2.9V Details on http://radiosondy.info
G4VFL-14U27502012022-12-06 11:10:5954.212-3.40679160395413Clb=4.7m/s t=-24.4C h=81.2% 405.10MHz Type=RS41-SG Details on http://radiosondy.info
G4VFL-14U27502012022-12-06 11:09:4954.2187-3.41032168435137Clb=3.6m/s t=-22.2C h=78.2% 405.10MHz Type=RS41-SG Details on http://radiosondy.info
G4VFL-14U27502012022-12-06 11:09:3354.2203-3.41098167395078Clb=3.8m/s t=-21.9C h=82.1% 405.10MHz Type=RS41-SG batt=2.9V Details on http://radiosondy.info
G4VFL-14U27502012022-12-06 11:09:0354.2232-3.41209166374979Clb=3.4m/s t=-21.0C h=77.1% 405.10MHz Type=RS41-SG Details on http://radiosondy.info
G4VFL-14U27502012022-12-06 11:08:4754.2246-3.41272169394929Clb=2.7m/s t=-20.6C h=77.2% 405.10MHz Type=RS41-SG Details on http://radiosondy.info
G4VFL-14U27502012022-12-06 11:08:3254.2261-3.41329169414883Clb=2.3m/s t=-20.2C h=78.5% 405.10MHz Type=RS41-SG batt=2.9V Details on http://radiosondy.info
G4VFL-14U27502012022-12-06 11:08:1554.2277-3.41386167434835Clb=3.0m/s t=-19.9C h=77.7% 405.10MHz Type=RS41-SG Details on http://radiosondy.info
G4VFL-14U27502012022-12-06 11:07:5954.2294-3.4144171434788Clb=2.7m/s t=-19.6C h=79.0% 405.10MHz Type=RS41-SG Details on http://radiosondy.info
G4VFL-14U27502012022-12-06 11:06:4254.2376-3.41724171434555Clb=3.2m/s t=-18.1C h=77.1% 405.10MHz Type=RS41-SG TxPastBurst=8h30m batt=2.9V Details on http://radiosondy.info
G4VFL-14U27502012022-12-06 11:06:2654.2393-3.41784169434508Clb=2.4m/s t=-17.9C h=76.5% 405.10MHz Type=RS41-SG Details on http://radiosondy.info
G4VFL-14U27502012022-12-06 11:06:1154.2409-3.41818174464463Clb=2.8m/s t=-17.7C h=77.5% 405.10MHz Type=RS41-SG Details on http://radiosondy.info
G4VFL-14U27502012022-12-06 11:04:5854.2492-3.41923177464231Clb=4.3m/s t=-16.3C h=78.8% 405.10MHz Type=RS41-SG batt=2.9V Details on http://radiosondy.info
G4VFL-14U27502012022-12-06 11:03:4854.2567-3.41988180433980Clb=4.2m/s t=-15.2C h=82.1% 405.10MHz Type=RS41-SG Details on http://radiosondy.info
G4VFL-14U27502012022-12-06 11:03:3254.2583-3.41971186413922Clb=4.1m/s t=-15.0C h=84.4% 405.10MHz Type=RS41-SG Details on http://radiosondy.info
G4VFL-14U27502012022-12-06 11:03:1654.2599-3.41941187413860Clb=3.5m/s t=-14.6C h=84.5% 405.10MHz Type=RS41-SG batt=2.9V Details on http://radiosondy.info
G4VFL-14U27502012022-12-06 11:03:0154.2615-3.41918184413804Clb=3.6m/s t=-14.4C h=88.5% 405.10MHz Type=RS41-SG Details on http://radiosondy.info
G4VFL-14U27502012022-12-06 11:02:4554.2631-3.41919175413744Clb=3.3m/s t=-14.0C h=86.6% 405.10MHz Type=RS41-SG Details on http://radiosondy.info
G4VFL-14U27502012022-12-06 11:02:2954.2647-3.41941176393677Clb=3.3m/s t=-13.5C h=86.9% 405.10MHz Type=RS41-SG TxPastBurst=8h30m batt=2.9V Details on http://radiosondy.info
G4VFL-14U27502012022-12-06 11:02:1354.2663-3.41954170463611Clb=4.8m/s t=-12.9C h=83.4% 405.10MHz Type=RS41-SG Details on http://radiosondy.info
G4VFL-14U27502012022-12-06 11:01:5854.268-3.42014154353543Clb=5.6m/s t=-12.6C h=77.6% 405.10MHz Type=RS41-SG Details on http://radiosondy.info
G4VFL-14U27502012022-12-06 11:00:5054.2739-3.42245185303180Clb=4.5m/s t=-9.6C h=41.7% 405.10MHz Type=RS41-SG batt=2.9V Details on http://radiosondy.info
G4VFL-14U27502012022-12-06 11:00:3554.275-3.42252181303104Clb=5.8m/s t=-8.9C calibration 98% 405.10MHz Type=RS41-SG Details on http://radiosondy.info
G4VFL-14U27502012022-12-06 11:00:1854.2762-3.42279178303028Clb=3.2m/s t=-8.2C calibration 98% 405.10MHz Type=RS41-SG Details on http://radiosondy.info
G4VFL-14U27502012022-12-06 11:00:0254.2774-3.4232161352970Clb=4.8m/s t=-7.8C calibration 98% 405.10MHz Type=RS41-SG batt=2.9V Details on http://radiosondy.info
G4VFL-14U27502012022-12-06 10:59:4654.2788-3.4234175332900Clb=4.4m/s t=-7.2C calibration 98% 405.10MHz Type=RS41-SG Details on http://radiosondy.info
G4VFL-14U27502012022-12-06 10:59:3154.28-3.42354176372850Clb=4.1m/s t=-6.9C calibration 98% 405.10MHz Type=RS41-SG Details on http://radiosondy.info
G4VFL-14U27502012022-12-06 10:59:1554.2815-3.42371175392792Clb=3.1m/s t=-6.8C calibration 98% 405.10MHz Type=RS41-SG TxPastBurst=8h30m batt=2.9V Details on http://radiosondy.info
G4VFL-14U27502012022-12-06 10:58:5954.283-3.42386177302740Clb=2.7m/s t=-7.0C calibration 92% 405.10MHz Type=RS41-SG Details on http://radiosondy.info
G4VFL-14U27502012022-12-06 10:57:4854.288-3.42469158202475Clb=3.5m/s t=-8.3C calibration 92% 405.10MHz Type=RS41-SG Details on http://radiosondy.info
G4VFL-14U27502012022-12-06 10:57:3254.2888-3.42514168172422Clb=4.5m/s t=-7.8C calibration 92% 405.10MHz Type=RS41-SG batt=2.9V Details on http://radiosondy.info
G4VFL-14U27502012022-12-06 10:57:1754.2894-3.42553159192368Clb=4.5m/s t=-7.6C calibration 92% 405.10MHz Type=RS41-SG Details on http://radiosondy.info
G4VFL-14U27502012022-12-06 10:57:0254.29-3.42586159262292Clb=6.7m/s t=-7.5C calibration 92% 405.10MHz Type=RS41-SG Details on http://radiosondy.info
G4VFL-14U27502012022-12-06 10:56:4654.291-3.42607195302225Clb=4.4m/s t=-8.1C calibration 92% 405.10MHz Type=RS41-SG batt=2.9V Details on http://radiosondy.info
G4VFL-14U27502012022-12-06 10:56:3054.2921-3.42546192312158Clb=3.4m/s t=-7.9C calibration 92% 405.10MHz Type=RS41-SG Details on http://radiosondy.info
G4VFL-14U27502012022-12-06 10:56:1454.2934-3.42485205352097Clb=5.1m/s t=-8.0C calibration 92% 405.10MHz Type=RS41-SG Details on http://radiosondy.info
G4VFL-14U27502012022-12-06 10:55:5854.2948-3.4245178312023Clb=5.5m/s t=-7.6C calibration 90% 405.10MHz Type=RS41-SG TxPastBurst=8h30m batt=2.9V Details on http://radiosondy.info
G4VFL-14U27502012022-12-06 10:54:4654.2999-3.4242185241654Clb=3.5m/s t=-5.1C calibration 88% 405.10MHz Type=RS41-SG Details on http://radiosondy.info
G4VFL-14U27502012022-12-06 10:54:3054.3009-3.42405182281587Clb=4.9m/s t=-4.6C calibration 86% 405.10MHz Type=RS41-SG Details on http://radiosondy.info
G4VFL-14U27502012022-12-06 10:54:1554.3019-3.42391195281523Clb=4.4m/s t=-4.3C calibration 76% 405.10MHz Type=RS41-SG batt=2.9V Details on http://radiosondy.info
G4VFL-14U27502012022-12-06 10:54:0054.303-3.42418185391445Clb=5.8m/s t=-3.6C calibration 70% 405.10MHz Type=RS41-SG Details on http://radiosondy.info
G4VFL-14U27502012022-12-06 10:53:4454.3045-3.42372189371361Clb=7.2m/s calibration 58% Type=RS41-SG Details on http://radiosondy.info
G4VFL-14U27502012022-12-06 10:53:2954.3058-3.4231185371273Clb=5.3m/s calibration 45% Type=RS41-SG batt=2.9V Details on http://radiosondy.info
G4VFL-14U27502012022-12-06 10:53:1354.3072-3.42218199351176Clb=5.4m/s calibration 29% Type=RS41-SG Details on http://radiosondy.info
G4VFL-14U27502012022-12-06 10:52:5854.3084-3.42131201431098Clb=5.0m/s calibration 15% Type=RS41-SG Details on http://radiosondy.info
G4VFL-14U27502012022-12-06 10:51:4654.3146-3.415822637719Clb=6.3m/s calibration 7% Type=RS41-SG batt=2.9V Details on http://radiosondy.info